Harrisville, MI

12:36 AM EDT on April 28, 2015 (GMT -0400)
KMIOSCOD3 | | Change Station
CLOSE
Current Station
Personal Weather Station
Location: On the Beach , North of Oscoda, MI
Elevation: 582 ft
Nearby Weather Stations

Elev 582 ft 44.51 °N, 83.32 °W | Updated 15 seconds ago

Overcast
Overcast
44.4 °F
Feels Like 44 °F
N
0.0
Wind Variable Wind from NNW
Gusts 1.3 mph

Today
High -- | Low -- °F
--% Chance of Precip.
Yesterday
High -- | Low -- °F
Precip. -- in
6:28 AM 8:34 PM
Waxing Gibbous, 70% visible
Pressure 30.10 in
Visibility 10.0 miles
Clouds Overcast 4000 ft
Windchill 44 °F
Dew Point 36 °F
Humidity 73%
Rainfall 0.00 in
Snow Depth Not available.
UV 0 out of 12
Pollen 10.00 out of 12
Air Quality Not available.
Flu Activity Regional
METAR KOSC 280414Z AUTO 00000KT 10SM OVC040 07/01 A3010 RMK AO2 T00700014

More Conditions Fewer Conditions

Pressure 30.10 in
Visibility 10.0 miles
Clouds Overcast 4000 ft
Windchill 44 °F
Dew Point 36 °F
Humidity 73%
Rainfall 0.00 in
Snow Depth Not available.
UV 0 out of 12
Pollen 10.00 out of 12
Air Quality Not available.
Flu Activity Regional
METAR KOSC 280414Z AUTO 00000KT 10SM OVC040 07/01 A3010 RMK AO2 T00700014

More Conditions Fewer Conditions

Nowcast | as of 12:00 am EDT on April 28, 2015

At 1 am...mostly cloudy. Temperature 42. North winds 6 mph. At 3 am...mostly cloudy. Temperature 40. Light winds. At 5 am...cloudy. Temperature 39. Light winds. At 7 am...temperature 39. Northwest winds 5 mph.

×

10-Day Weather Forecast

Almanac

Astronomy

Apr. 28, 2015 Rise Set
Actual Time
Civil Twilight
Nautical Twilight
Astronomical Twilight
Moon
Length of Visible Light
Length of Day
Tomorrow will be .
, % of the Moon is Illuminated

Today's Extremes

State Highs State Lows

Community

WunderPhotos

Upload Photos

1,817,582 photos uploaded!

WunderBlogs® & News

Nearby

Air Quality

  Air Quality AQ Index Pollutant
Not available.

Snow Depth

Station Depth Elevation

Earthquake Activity

City Distance Mag. Time & Date
Minimum magnitude displayed is 2.5.

Coastal Water Temperatures

Place Temperature

Stations

Nearby Weather Stations

Station Location Temp. Windchill Dew Point Humidity Wind Precip. Elev Updated Type